sensor_id;sensor_type;location;lat;lon;timestamp;P1;durP1;ratioP1;P2;durP2;ratioP2
37855;SDS011;23694;43.274;26.924;2023-12-22T00:00:26;47.07;;;29.20;;
37855;SDS011;23694;43.274;26.924;2023-12-22T00:03:29;46.17;;;28.13;;
37855;SDS011;23694;43.274;26.924;2023-12-22T00:06:37;45.83;;;26.47;;
37855;SDS011;23694;43.274;26.924;2023-12-22T00:09:07;45.60;;;27.23;;
37855;SDS011;23694;43.274;26.924;2023-12-22T00:11:37;47.43;;;27.50;;
37855;SDS011;23694;43.274;26.924;2023-12-22T00:14:18;44.33;;;28.03;;
37855;SDS011;23694;43.274;26.924;2023-12-22T00:17:07;42.50;;;25.27;;
37855;SDS011;23694;43.274;26.924;2023-12-22T00:19:35;42.53;;;26.13;;
37855;SDS011;23694;43.274;26.924;2023-12-22T00:22:02;45.40;;;25.53;;
37855;SDS011;23694;43.274;26.924;2023-12-22T00:25:07;44.40;;;26.03;;
37855;SDS011;23694;43.274;26.924;2023-12-22T00:27:47;66.07;;;40.40;;
37855;SDS011;23694;43.274;26.924;2023-12-22T00:30:22;62.10;;;36.97;;
37855;SDS011;23694;43.274;26.924;2023-12-22T00:32:56;52.83;;;31.03;;
37855;SDS011;23694;43.274;26.924;2023-12-22T00:35:37;47.63;;;29.40;;
37855;SDS011;23694;43.274;26.924;2023-12-22T00:38:09;50.13;;;31.13;;
37855;SDS011;23694;43.274;26.924;2023-12-22T00:40:43;53.00;;;30.87;;
37855;SDS011;23694;43.274;26.924;2023-12-22T00:43:29;50.90;;;31.80;;
37855;SDS011;23694;43.274;26.924;2023-12-22T00:46:34;50.60;;;30.33;;
37855;SDS011;23694;43.274;26.924;2023-12-22T00:49:03;50.77;;;31.07;;
37855;SDS011;23694;43.274;26.924;2023-12-22T00:51:37;44.13;;;28.13;;
37855;SDS011;23694;43.274;26.924;2023-12-22T00:54:06;45.33;;;27.40;;
37855;SDS011;23694;43.274;26.924;2023-12-22T00:56:33;47.07;;;27.50;;
37855;SDS011;23694;43.274;26.924;2023-12-22T00:59:24;43.40;;;27.93;;
37855;SDS011;23694;43.274;26.924;2023-12-22T01:02:18;43.57;;;24.73;;
37855;SDS011;23694;43.274;26.924;2023-12-22T01:04:46;37.80;;;23.77;;
37855;SDS011;23694;43.274;26.924;2023-12-22T01:07:24;41.67;;;24.77;;
37855;SDS011;23694;43.274;26.924;2023-12-22T01:09:54;37.60;;;23.93;;
37855;SDS011;23694;43.274;26.924;2023-12-22T01:12:30;38.17;;;23.47;;
37855;SDS011;23694;43.274;26.924;2023-12-22T01:15:00;41.27;;;24.80;;
37855;SDS011;23694;43.274;26.924;2023-12-22T01:17:36;42.57;;;25.03;;
37855;SDS011;23694;43.274;26.924;2023-12-22T01:20:05;45.23;;;26.77;;
37855;SDS011;23694;43.274;26.924;2023-12-22T01:22:45;38.50;;;22.37;;
37855;SDS011;23694;43.274;26.924;2023-12-22T01:25:20;34.20;;;21.70;;
37855;SDS011;23694;43.274;26.924;2023-12-22T01:27:57;40.53;;;24.47;;
37855;SDS011;23694;43.274;26.924;2023-12-22T01:30:35;40.93;;;24.27;;
37855;SDS011;23694;43.274;26.924;2023-12-22T01:33:10;38.37;;;25.10;;
37855;SDS011;23694;43.274;26.924;2023-12-22T01:35:50;40.70;;;25.17;;
37855;SDS011;23694;43.274;26.924;2023-12-22T01:38:41;40.77;;;25.20;;
37855;SDS011;23694;43.274;26.924;2023-12-22T01:41:26;40.63;;;24.43;;
37855;SDS011;23694;43.274;26.924;2023-12-22T01:43:53;44.20;;;25.53;;
37855;SDS011;23694;43.274;26.924;2023-12-22T01:46:24;43.17;;;25.90;;
37855;SDS011;23694;43.274;26.924;2023-12-22T01:49:17;42.97;;;24.63;;
37855;SDS011;23694;43.274;26.924;2023-12-22T01:51:57;40.28;;;23.95;;
37855;SDS011;23694;43.274;26.924;2023-12-22T01:54:34;39.00;;;22.57;;
37855;SDS011;23694;43.274;26.924;2023-12-22T01:57:03;34.23;;;20.30;;
37855;SDS011;23694;43.274;26.924;2023-12-22T01:59:41;33.70;;;19.87;;
37855;SDS011;23694;43.274;26.924;2023-12-22T02:02:42;24.77;;;15.77;;
37855;SDS011;23694;43.274;26.924;2023-12-22T02:05:15;26.40;;;14.63;;
37855;SDS011;23694;43.274;26.924;2023-12-22T02:07:58;29.38;;;15.50;;
37855;SDS011;23694;43.274;26.924;2023-12-22T02:10:38;34.88;;;18.48;;
37855;SDS011;23694;43.274;26.924;2023-12-22T02:13:31;31.00;;;16.43;;
37855;SDS011;23694;43.274;26.924;2023-12-22T02:16:02;28.53;;;16.40;;
37855;SDS011;23694;43.274;26.924;2023-12-22T02:19:03;26.00;;;16.20;;
37855;SDS011;23694;43.274;26.924;2023-12-22T02:24:41;23.93;;;14.57;;
37855;SDS011;23694;43.274;26.924;2023-12-22T02:30:19;27.53;;;15.73;;
37855;SDS011;23694;43.274;26.924;2023-12-22T02:32:48;24.70;;;15.00;;
37855;SDS011;23694;43.274;26.924;2023-12-22T02:35:24;18.37;;;12.23;;
37855;SDS011;23694;43.274;26.924;2023-12-22T02:37:56;20.50;;;12.07;;
37855;SDS011;23694;43.274;26.924;2023-12-22T02:40:43;19.67;;;12.47;;
37855;SDS011;23694;43.274;26.924;2023-12-22T02:43:17;18.40;;;11.93;;
37855;SDS011;23694;43.274;26.924;2023-12-22T02:45:57;15.33;;;10.27;;
37855;SDS011;23694;43.274;26.924;2023-12-22T02:48:34;13.87;;;9.67;;
37855;SDS011;23694;43.274;26.924;2023-12-22T02:51:09;14.27;;;8.37;;
37855;SDS011;23694;43.274;26.924;2023-12-22T02:53:37;13.47;;;7.77;;
37855;SDS011;23694;43.274;26.924;2023-12-22T02:56:28;12.23;;;8.77;;
37855;SDS011;23694;43.274;26.924;2023-12-22T02:59:00;13.30;;;8.17;;
37855;SDS011;23694;43.274;26.924;2023-12-22T03:01:26;13.23;;;8.80;;
37855;SDS011;23694;43.274;26.924;2023-12-22T03:03:54;11.87;;;7.47;;
37855;SDS011;23694;43.274;26.924;2023-12-22T03:06:44;12.97;;;8.70;;
37855;SDS011;23694;43.274;26.924;2023-12-22T03:09:19;15.27;;;9.50;;
37855;SDS011;23694;43.274;26.924;2023-12-22T03:11:48;12.73;;;8.93;;
37855;SDS011;23694;43.274;26.924;2023-12-22T03:14:20;12.23;;;8.30;;
37855;SDS011;23694;43.274;26.924;2023-12-22T03:16:50;14.37;;;9.10;;
37855;SDS011;23694;43.274;26.924;2023-12-22T03:19:19;12.00;;;8.07;;
37855;SDS011;23694;43.274;26.924;2023-12-22T03:22:03;10.73;;;6.53;;
37855;SDS011;23694;43.274;26.924;2023-12-22T03:24:40;9.27;;;6.33;;
37855;SDS011;23694;43.274;26.924;2023-12-22T03:27:27;10.60;;;7.13;;
37855;SDS011;23694;43.274;26.924;2023-12-22T03:29:56;10.67;;;7.73;;
37855;SDS011;23694;43.274;26.924;2023-12-22T03:32:35;17.97;;;10.80;;
37855;SDS011;23694;43.274;26.924;2023-12-22T03:35:33;17.63;;;10.07;;
37855;SDS011;23694;43.274;26.924;2023-12-22T03:38:23;15.47;;;10.33;;
37855;SDS011;23694;43.274;26.924;2023-12-22T03:40:55;20.42;;;9.80;;
37855;SDS011;23694;43.274;26.924;2023-12-22T03:43:39;18.67;;;11.23;;
37855;SDS011;23694;43.274;26.924;2023-12-22T03:48:34;21.13;;;12.43;;
37855;SDS011;23694;43.274;26.924;2023-12-22T03:51:11;30.33;;;20.03;;
37855;SDS011;23694;43.274;26.924;2023-12-22T03:53:52;34.63;;;19.73;;
37855;SDS011;23694;43.274;26.924;2023-12-22T03:56:45;32.23;;;19.10;;
37855;SDS011;23694;43.274;26.924;2023-12-22T03:59:11;37.27;;;21.83;;
37855;SDS011;23694;43.274;26.924;2023-12-22T04:01:56;31.70;;;18.00;;
37855;SDS011;23694;43.274;26.924;2023-12-22T04:04:31;23.38;;;13.20;;
37855;SDS011;23694;43.274;26.924;2023-12-22T04:07:06;21.07;;;12.77;;
37855;SDS011;23694;43.274;26.924;2023-12-22T04:09:36;25.83;;;13.90;;
37855;SDS011;23694;43.274;26.924;2023-12-22T04:12:14;23.47;;;13.83;;
37855;SDS011;23694;43.274;26.924;2023-12-22T04:14:48;27.67;;;14.80;;
37855;SDS011;23694;43.274;26.924;2023-12-22T04:17:32;57.37;;;33.80;;
37855;SDS011;23694;43.274;26.924;2023-12-22T04:20:26;24.63;;;14.00;;
37855;SDS011;23694;43.274;26.924;2023-12-22T04:22:52;27.90;;;15.57;;
37855;SDS011;23694;43.274;26.924;2023-12-22T04:25:24;28.63;;;14.87;;
37855;SDS011;23694;43.274;26.924;2023-12-22T04:30:35;37.73;;;22.87;;
37855;SDS011;23694;43.274;26.924;2023-12-22T04:33:05;24.87;;;16.30;;
37855;SDS011;23694;43.274;26.924;2023-12-22T04:35:34;22.93;;;15.67;;
37855;SDS011;23694;43.274;26.924;2023-12-22T04:38:27;27.03;;;16.83;;
37855;SDS011;23694;43.274;26.924;2023-12-22T04:41:07;28.03;;;18.60;;
37855;SDS011;23694;43.274;26.924;2023-12-22T04:43:50;29.90;;;18.37;;
37855;SDS011;23694;43.274;26.924;2023-12-22T04:46:41;27.27;;;18.80;;
37855;SDS011;23694;43.274;26.924;2023-12-22T04:49:18;29.10;;;18.87;;
37855;SDS011;23694;43.274;26.924;2023-12-22T04:52:14;32.17;;;22.07;;
37855;SDS011;23694;43.274;26.924;2023-12-22T04:54:46;40.70;;;24.83;;
37855;SDS011;23694;43.274;26.924;2023-12-22T04:57:16;61.00;;;38.70;;
37855;SDS011;23694;43.274;26.924;2023-12-22T04:59:49;44.20;;;28.33;;
37855;SDS011;23694;43.274;26.924;2023-12-22T05:02:39;48.90;;;31.03;;
37855;SDS011;23694;43.274;26.924;2023-12-22T05:05:09;41.63;;;26.57;;
37855;SDS011;23694;43.274;26.924;2023-12-22T05:07:39;40.57;;;25.63;;
37855;SDS011;23694;43.274;26.924;2023-12-22T05:10:08;44.43;;;27.17;;
37855;SDS011;23694;43.274;26.924;2023-12-22T05:12:40;44.90;;;27.50;;
37855;SDS011;23694;43.274;26.924;2023-12-22T05:15:38;75.87;;;40.93;;
37855;SDS011;23694;43.274;26.924;2023-12-22T05:18:05;52.23;;;30.13;;
37855;SDS011;23694;43.274;26.924;2023-12-22T05:20:47;41.97;;;26.80;;
37855;SDS011;23694;43.274;26.924;2023-12-22T05:23:17;48.60;;;31.80;;
37855;SDS011;23694;43.274;26.924;2023-12-22T05:25:47;59.20;;;37.50;;
37855;SDS011;23694;43.274;26.924;2023-12-22T05:28:34;73.67;;;43.63;;
37855;SDS011;23694;43.274;26.924;2023-12-22T05:33:35;55.37;;;31.57;;
37855;SDS011;23694;43.274;26.924;2023-12-22T05:36:06;52.70;;;32.33;;
37855;SDS011;23694;43.274;26.924;2023-12-22T05:38:39;53.00;;;30.97;;
37855;SDS011;23694;43.274;26.924;2023-12-22T05:41:21;50.75;;;30.83;;
37855;SDS011;23694;43.274;26.924;2023-12-22T05:43:52;66.20;;;38.03;;
37855;SDS011;23694;43.274;26.924;2023-12-22T05:46:20;69.53;;;39.60;;
37855;SDS011;23694;43.274;26.924;2023-12-22T05:48:58;65.57;;;39.63;;
37855;SDS011;23694;43.274;26.924;2023-12-22T05:51:53;72.03;;;40.47;;
37855;SDS011;23694;43.274;26.924;2023-12-22T05:54:41;68.33;;;41.60;;
37855;SDS011;23694;43.274;26.924;2023-12-22T05:57:17;69.27;;;42.17;;
37855;SDS011;23694;43.274;26.924;2023-12-22T05:59:56;72.17;;;43.73;;
37855;SDS011;23694;43.274;26.924;2023-12-22T06:02:48;80.63;;;43.10;;
37855;SDS011;23694;43.274;26.924;2023-12-22T06:05:23;79.63;;;43.73;;
37855;SDS011;23694;43.274;26.924;2023-12-22T06:08:11;76.00;;;43.30;;
37855;SDS011;23694;43.274;26.924;2023-12-22T06:10:38;65.53;;;38.60;;
37855;SDS011;23694;43.274;26.924;2023-12-22T06:13:04;71.00;;;39.23;;
37855;SDS011;23694;43.274;26.924;2023-12-22T06:15:33;84.57;;;47.30;;
37855;SDS011;23694;43.274;26.924;2023-12-22T06:18:11;88.50;;;49.23;;
37855;SDS011;23694;43.274;26.924;2023-12-22T06:20:48;88.97;;;48.03;;
37855;SDS011;23694;43.274;26.924;2023-12-22T06:23:26;84.53;;;49.93;;
37855;SDS011;23694;43.274;26.924;2023-12-22T06:28:46;92.07;;;53.07;;
37855;SDS011;23694;43.274;26.924;2023-12-22T06:33:46;101.20;;;53.77;;
37855;SDS011;23694;43.274;26.924;2023-12-22T06:36:36;108.63;;;61.15;;
37855;SDS011;23694;43.274;26.924;2023-12-22T06:39:16;115.95;;;57.28;;
37855;SDS011;23694;43.274;26.924;2023-12-22T06:41:49;92.53;;;54.03;;
37855;SDS011;23694;43.274;26.924;2023-12-22T06:44:27;94.80;;;53.20;;
37855;SDS011;23694;43.274;26.924;2023-12-22T06:46:57;92.40;;;52.57;;
37855;SDS011;23694;43.274;26.924;2023-12-22T06:49:27;94.77;;;52.00;;
37855;SDS011;23694;43.274;26.924;2023-12-22T06:51:56;92.50;;;51.80;;
37855;SDS011;23694;43.274;26.924;2023-12-22T06:54:23;87.67;;;51.17;;
37855;SDS011;23694;43.274;26.924;2023-12-22T06:57:18;88.00;;;50.40;;
37855;SDS011;23694;43.274;26.924;2023-12-22T07:00:10;86.20;;;49.83;;
37855;SDS011;23694;43.274;26.924;2023-12-22T07:02:51;88.77;;;51.40;;
37855;SDS011;23694;43.274;26.924;2023-12-22T07:05:33;89.73;;;51.20;;
37855;SDS011;23694;43.274;26.924;2023-12-22T07:08:20;96.80;;;56.13;;
37855;SDS011;23694;43.274;26.924;2023-12-22T07:11:11;96.03;;;56.90;;
37855;SDS011;23694;43.274;26.924;2023-12-22T07:14:00;96.07;;;58.73;;
37855;SDS011;23694;43.274;26.924;2023-12-22T07:17:00;107.87;;;66.60;;
37855;SDS011;23694;43.274;26.924;2023-12-22T07:19:32;128.80;;;77.37;;
37855;SDS011;23694;43.274;26.924;2023-12-22T07:21:58;130.87;;;86.23;;
37855;SDS011;23694;43.274;26.924;2023-12-22T07:24:35;92.20;;;59.23;;
37855;SDS011;23694;43.274;26.924;2023-12-22T07:27:05;91.70;;;52.60;;
37855;SDS011;23694;43.274;26.924;2023-12-22T07:29:59;89.47;;;54.27;;
37855;SDS011;23694;43.274;26.924;2023-12-22T07:32:38;133.43;;;72.10;;
37855;SDS011;23694;43.274;26.924;2023-12-22T07:35:08;128.97;;;72.23;;
37855;SDS011;23694;43.274;26.924;2023-12-22T07:37:41;138.90;;;78.67;;
37855;SDS011;23694;43.274;26.924;2023-12-22T07:42:51;115.60;;;66.33;;
37855;SDS011;23694;43.274;26.924;2023-12-22T07:45:20;93.97;;;53.13;;
37855;SDS011;23694;43.274;26.924;2023-12-22T07:47:48;85.90;;;52.80;;
37855;SDS011;23694;43.274;26.924;2023-12-22T07:50:18;76.63;;;45.83;;
37855;SDS011;23694;43.274;26.924;2023-12-22T07:52:44;77.43;;;46.77;;
37855;SDS011;23694;43.274;26.924;2023-12-22T07:55:13;89.20;;;49.27;;
37855;SDS011;23694;43.274;26.924;2023-12-22T07:57:41;99.80;;;55.13;;
37855;SDS011;23694;43.274;26.924;2023-12-22T08:03:10;98.50;;;52.80;;
37855;SDS011;23694;43.274;26.924;2023-12-22T08:06:07;84.70;;;51.57;;
37855;SDS011;23694;43.274;26.924;2023-12-22T08:09:03;86.80;;;48.33;;
37855;SDS011;23694;43.274;26.924;2023-12-22T08:11:43;79.33;;;44.60;;
37855;SDS011;23694;43.274;26.924;2023-12-22T08:14:27;55.67;;;32.17;;
37855;SDS011;23694;43.274;26.924;2023-12-22T08:17:02;56.83;;;33.30;;
37855;SDS011;23694;43.274;26.924;2023-12-22T08:20:05;51.53;;;32.70;;
37855;SDS011;23694;43.274;26.924;2023-12-22T08:22:55;48.67;;;29.43;;
37855;SDS011;23694;43.274;26.924;2023-12-22T08:25:26;44.70;;;29.67;;
37855;SDS011;23694;43.274;26.924;2023-12-22T08:28:01;51.70;;;30.00;;
37855;SDS011;23694;43.274;26.924;2023-12-22T08:31:13;46.23;;;28.10;;
37855;SDS011;23694;43.274;26.924;2023-12-22T08:34:02;44.50;;;25.63;;
37855;SDS011;23694;43.274;26.924;2023-12-22T08:37:06;50.93;;;28.33;;
37855;SDS011;23694;43.274;26.924;2023-12-22T08:39:44;50.60;;;28.30;;
37855;SDS011;23694;43.274;26.924;2023-12-22T08:42:12;78.53;;;40.87;;
37855;SDS011;23694;43.274;26.924;2023-12-22T08:44:43;77.57;;;39.22;;
37855;SDS011;23694;43.274;26.924;2023-12-22T08:47:20;70.47;;;37.87;;
37855;SDS011;23694;43.274;26.924;2023-12-22T08:49:51;79.00;;;37.97;;
37855;SDS011;23694;43.274;26.924;2023-12-22T08:52:29;90.70;;;49.97;;
37855;SDS011;23694;43.274;26.924;2023-12-22T08:55:00;96.40;;;52.30;;
37855;SDS011;23694;43.274;26.924;2023-12-22T08:57:32;112.75;;;59.22;;
37855;SDS011;23694;43.274;26.924;2023-12-22T08:59:58;108.10;;;61.57;;
37855;SDS011;23694;43.274;26.924;2023-12-22T09:02:27;120.57;;;65.67;;
37855;SDS011;23694;43.274;26.924;2023-12-22T09:05:36;123.30;;;72.37;;
37855;SDS011;23694;43.274;26.924;2023-12-22T09:08:26;108.63;;;62.05;;
37855;SDS011;23694;43.274;26.924;2023-12-22T09:10:56;101.13;;;61.93;;
37855;SDS011;23694;43.274;26.924;2023-12-22T09:13:55;89.37;;;53.77;;
37855;SDS011;23694;43.274;26.924;2023-12-22T09:16:45;84.43;;;47.80;;
37855;SDS011;23694;43.274;26.924;2023-12-22T09:19:17;78.93;;;44.87;;
37855;SDS011;23694;43.274;26.924;2023-12-22T09:21:48;77.38;;;41.28;;
37855;SDS011;23694;43.274;26.924;2023-12-22T09:24:15;66.90;;;38.67;;
37855;SDS011;23694;43.274;26.924;2023-12-22T09:26:44;75.23;;;41.67;;
37855;SDS011;23694;43.274;26.924;2023-12-22T09:29:15;88.77;;;48.77;;
37855;SDS011;23694;43.274;26.924;2023-12-22T09:50:41;53.70;;;28.43;;
37855;SDS011;23694;43.274;26.924;2023-12-22T09:53:18;54.67;;;30.90;;
37855;SDS011;23694;43.274;26.924;2023-12-22T09:56:12;62.40;;;32.77;;
37855;SDS011;23694;43.274;26.924;2023-12-22T10:02:18;69.73;;;35.90;;
37855;SDS011;23694;43.274;26.924;2023-12-22T10:04:45;61.93;;;36.43;;
37855;SDS011;23694;43.274;26.924;2023-12-22T10:07:11;64.87;;;35.90;;
37855;SDS011;23694;43.274;26.924;2023-12-22T10:09:41;68.20;;;36.73;;
37855;SDS011;23694;43.274;26.924;2023-12-22T10:12:08;71.77;;;37.90;;
37855;SDS011;23694;43.274;26.924;2023-12-22T10:14:37;64.87;;;35.93;;
37855;SDS011;23694;43.274;26.924;2023-12-22T10:17:04;73.10;;;39.57;;
37855;SDS011;23694;43.274;26.924;2023-12-22T10:19:31;71.70;;;39.17;;
37855;SDS011;23694;43.274;26.924;2023-12-22T10:21:57;70.20;;;41.73;;
37855;SDS011;23694;43.274;26.924;2023-12-22T10:24:42;73.90;;;42.07;;
37855;SDS011;23694;43.274;26.924;2023-12-22T10:27:10;73.33;;;42.70;;
37855;SDS011;23694;43.274;26.924;2023-12-22T10:29:37;75.93;;;40.97;;
37855;SDS011;23694;43.274;26.924;2023-12-22T10:32:04;79.20;;;40.27;;
37855;SDS011;23694;43.274;26.924;2023-12-22T10:34:30;56.90;;;32.67;;
37855;SDS011;23694;43.274;26.924;2023-12-22T10:36:58;35.63;;;20.43;;
37855;SDS011;23694;43.274;26.924;2023-12-22T10:39:28;25.20;;;11.90;;
37855;SDS011;23694;43.274;26.924;2023-12-22T10:41:58;9.87;;;6.70;;
37855;SDS011;23694;43.274;26.924;2023-12-22T10:44:25;13.03;;;5.10;;
37855;SDS011;23694;43.274;26.924;2023-12-22T10:46:52;10.07;;;4.60;;
37855;SDS011;23694;43.274;26.924;2023-12-22T10:49:20;7.57;;;4.50;;
37855;SDS011;23694;43.274;26.924;2023-12-22T10:51:46;6.97;;;4.60;;
37855;SDS011;23694;43.274;26.924;2023-12-22T10:54:12;12.80;;;4.77;;
37855;SDS011;23694;43.274;26.924;2023-12-22T10:56:39;7.53;;;4.57;;
37855;SDS011;23694;43.274;26.924;2023-12-22T10:59:06;9.67;;;5.00;;
37855;SDS011;23694;43.274;26.924;2023-12-22T11:01:32;10.60;;;5.50;;
37855;SDS011;23694;43.274;26.924;2023-12-22T11:04:07;8.82;;;5.55;;
37855;SDS011;23694;43.274;26.924;2023-12-22T11:06:35;7.03;;;4.83;;
37855;SDS011;23694;43.274;26.924;2023-12-22T11:09:09;9.57;;;5.07;;
37855;SDS011;23694;43.274;26.924;2023-12-22T11:11:36;9.57;;;5.13;;
37855;SDS011;23694;43.274;26.924;2023-12-22T11:14:04;7.27;;;4.73;;
37855;SDS011;23694;43.274;26.924;2023-12-22T11:16:32;9.43;;;4.60;;
37855;SDS011;23694;43.274;26.924;2023-12-22T11:19:00;7.07;;;4.70;;
37855;SDS011;23694;43.274;26.924;2023-12-22T11:21:27;11.33;;;5.43;;
37855;SDS011;23694;43.274;26.924;2023-12-22T11:23:54;7.60;;;4.20;;
37855;SDS011;23694;43.274;26.924;2023-12-22T11:26:23;8.10;;;4.20;;
37855;SDS011;23694;43.274;26.924;2023-12-22T11:28:50;5.13;;;3.70;;
37855;SDS011;23694;43.274;26.924;2023-12-22T11:31:18;8.67;;;4.40;;
37855;SDS011;23694;43.274;26.924;2023-12-22T11:33:45;6.27;;;4.00;;
37855;SDS011;23694;43.274;26.924;2023-12-22T11:36:12;7.33;;;4.87;;
37855;SDS011;23694;43.274;26.924;2023-12-22T11:38:40;9.17;;;5.43;;
37855;SDS011;23694;43.274;26.924;2023-12-22T11:41:15;6.87;;;4.77;;
37855;SDS011;23694;43.274;26.924;2023-12-22T11:43:44;5.20;;;3.93;;
37855;SDS011;23694;43.274;26.924;2023-12-22T11:46:11;4.77;;;3.67;;
37855;SDS011;23694;43.274;26.924;2023-12-22T11:48:37;8.33;;;4.60;;
37855;SDS011;23694;43.274;26.924;2023-12-22T11:51:13;7.20;;;4.33;;
37855;SDS011;23694;43.274;26.924;2023-12-22T11:53:42;4.93;;;3.87;;
37855;SDS011;23694;43.274;26.924;2023-12-22T11:56:09;10.07;;;3.77;;
37855;SDS011;23694;43.274;26.924;2023-12-22T12:01:17;6.90;;;3.87;;
37855;SDS011;23694;43.274;26.924;2023-12-22T12:03:52;9.17;;;3.30;;
37855;SDS011;23694;43.274;26.924;2023-12-22T12:06:30;6.23;;;3.80;;
37855;SDS011;23694;43.274;26.924;2023-12-22T12:09:05;7.03;;;3.50;;
37855;SDS011;23694;43.274;26.924;2023-12-22T12:14:29;10.70;;;5.90;;
37855;SDS011;23694;43.274;26.924;2023-12-22T12:17:07;9.07;;;6.00;;
37855;SDS011;23694;43.274;26.924;2023-12-22T12:19:35;11.43;;;5.10;;
37855;SDS011;23694;43.274;26.924;2023-12-22T12:22:03;6.40;;;4.10;;
37855;SDS011;23694;43.274;26.924;2023-12-22T12:24:30;14.97;;;7.40;;
37855;SDS011;23694;43.274;26.924;2023-12-22T12:26:56;11.17;;;5.97;;
37855;SDS011;23694;43.274;26.924;2023-12-22T12:29:23;13.87;;;7.30;;
37855;SDS011;23694;43.274;26.924;2023-12-22T12:31:49;7.77;;;3.83;;
37855;SDS011;23694;43.274;26.924;2023-12-22T12:34:16;9.40;;;5.50;;
37855;SDS011;23694;43.274;26.924;2023-12-22T12:36:46;11.17;;;6.93;;
37855;SDS011;23694;43.274;26.924;2023-12-22T12:39:14;5.57;;;4.13;;
37855;SDS011;23694;43.274;26.924;2023-12-22T12:41:41;21.83;;;11.93;;
37855;SDS011;23694;43.274;26.924;2023-12-22T12:44:11;7.27;;;3.90;;
37855;SDS011;23694;43.274;26.924;2023-12-22T12:46:38;10.77;;;5.70;;
37855;SDS011;23694;43.274;26.924;2023-12-22T12:49:08;11.17;;;6.00;;
37855;SDS011;23694;43.274;26.924;2023-12-22T12:51:43;8.80;;;4.60;;
37855;SDS011;23694;43.274;26.924;2023-12-22T12:54:11;23.53;;;10.87;;
37855;SDS011;23694;43.274;26.924;2023-12-22T12:56:41;8.73;;;5.13;;
37855;SDS011;23694;43.274;26.924;2023-12-22T12:59:10;5.07;;;3.77;;
37855;SDS011;23694;43.274;26.924;2023-12-22T13:01:38;8.73;;;5.37;;
37855;SDS011;23694;43.274;26.924;2023-12-22T13:04:05;7.33;;;4.70;;
37855;SDS011;23694;43.274;26.924;2023-12-22T13:06:32;7.63;;;3.83;;
37855;SDS011;23694;43.274;26.924;2023-12-22T13:08:58;4.83;;;2.87;;
37855;SDS011;23694;43.274;26.924;2023-12-22T13:11:26;6.77;;;2.40;;
37855;SDS011;23694;43.274;26.924;2023-12-22T13:13:55;9.70;;;2.93;;
37855;SDS011;23694;43.274;26.924;2023-12-22T13:16:24;6.57;;;2.80;;
37855;SDS011;23694;43.274;26.924;2023-12-22T13:18:59;5.53;;;2.50;;
37855;SDS011;23694;43.274;26.924;2023-12-22T13:21:27;3.37;;;2.30;;
37855;SDS011;23694;43.274;26.924;2023-12-22T13:26:41;4.50;;;2.43;;
37855;SDS011;23694;43.274;26.924;2023-12-22T13:29:08;5.10;;;2.10;;
37855;SDS011;23694;43.274;26.924;2023-12-22T13:31:39;3.47;;;1.90;;
37855;SDS011;23694;43.274;26.924;2023-12-22T13:34:09;2.97;;;2.00;;
37855;SDS011;23694;43.274;26.924;2023-12-22T13:36:36;6.90;;;2.70;;
37855;SDS011;23694;43.274;26.924;2023-12-22T13:39:03;6.43;;;2.43;;
37855;SDS011;23694;43.274;26.924;2023-12-22T13:41:40;5.37;;;2.20;;
37855;SDS011;23694;43.274;26.924;2023-12-22T13:44:11;4.07;;;2.40;;
37855;SDS011;23694;43.274;26.924;2023-12-22T13:46:38;7.13;;;2.80;;
37855;SDS011;23694;43.274;26.924;2023-12-22T13:49:07;3.47;;;2.53;;
37855;SDS011;23694;43.274;26.924;2023-12-22T13:51:40;4.03;;;2.33;;
37855;SDS011;23694;43.274;26.924;2023-12-22T13:54:09;5.17;;;2.63;;
37855;SDS011;23694;43.274;26.924;2023-12-22T13:56:36;2.37;;;2.17;;
37855;SDS011;23694;43.274;26.924;2023-12-22T13:59:05;5.67;;;2.20;;
37855;SDS011;23694;43.274;26.924;2023-12-22T14:01:32;10.17;;;2.40;;
37855;SDS011;23694;43.274;26.924;2023-12-22T14:03:58;5.83;;;1.70;;
37855;SDS011;23694;43.274;26.924;2023-12-22T14:06:25;5.33;;;2.07;;
37855;SDS011;23694;43.274;26.924;2023-12-22T14:08:55;3.53;;;2.23;;
37855;SDS011;23694;43.274;26.924;2023-12-22T14:11:22;3.33;;;2.07;;
37855;SDS011;23694;43.274;26.924;2023-12-22T14:13:48;6.47;;;2.27;;
37855;SDS011;23694;43.274;26.924;2023-12-22T14:16:15;14.63;;;4.20;;
37855;SDS011;23694;43.274;26.924;2023-12-22T14:18:41;6.30;;;2.20;;
37855;SDS011;23694;43.274;26.924;2023-12-22T14:21:08;3.10;;;2.17;;
37855;SDS011;23694;43.274;26.924;2023-12-22T14:23:34;9.13;;;2.03;;
37855;SDS011;23694;43.274;26.924;2023-12-22T14:26:00;7.77;;;2.97;;
37855;SDS011;23694;43.274;26.924;2023-12-22T14:28:26;4.03;;;2.30;;
37855;SDS011;23694;43.274;26.924;2023-12-22T14:30:53;6.30;;;2.83;;
37855;SDS011;23694;43.274;26.924;2023-12-22T14:33:19;4.13;;;2.83;;
37855;SDS011;23694;43.274;26.924;2023-12-22T14:35:45;7.67;;;3.23;;
37855;SDS011;23694;43.274;26.924;2023-12-22T14:38:11;3.53;;;2.50;;
37855;SDS011;23694;43.274;26.924;2023-12-22T14:40:37;4.40;;;2.80;;
37855;SDS011;23694;43.274;26.924;2023-12-22T14:43:03;6.97;;;3.60;;
37855;SDS011;23694;43.274;26.924;2023-12-22T14:45:29;4.43;;;2.87;;
37855;SDS011;23694;43.274;26.924;2023-12-22T14:47:55;3.97;;;2.17;;
37855;SDS011;23694;43.274;26.924;2023-12-22T14:50:21;3.80;;;2.67;;
37855;SDS011;23694;43.274;26.924;2023-12-22T14:52:47;7.70;;;2.60;;
37855;SDS011;23694;43.274;26.924;2023-12-22T14:55:13;6.03;;;3.17;;
37855;SDS011;23694;43.274;26.924;2023-12-22T14:57:39;4.90;;;2.80;;
37855;SDS011;23694;43.274;26.924;2023-12-22T15:00:06;4.63;;;2.30;;
37855;SDS011;23694;43.274;26.924;2023-12-22T15:02:32;6.50;;;2.90;;
37855;SDS011;23694;43.274;26.924;2023-12-22T15:04:58;4.93;;;3.33;;
37855;SDS011;23694;43.274;26.924;2023-12-22T15:07:24;10.37;;;4.47;;
37855;SDS011;23694;43.274;26.924;2023-12-22T15:09:50;4.67;;;2.80;;
37855;SDS011;23694;43.274;26.924;2023-12-22T15:12:16;8.33;;;2.87;;
37855;SDS011;23694;43.274;26.924;2023-12-22T15:14:43;7.17;;;2.67;;
37855;SDS011;23694;43.274;26.924;2023-12-22T15:17:13;3.27;;;2.20;;
37855;SDS011;23694;43.274;26.924;2023-12-22T15:19:40;7.67;;;2.70;;
37855;SDS011;23694;43.274;26.924;2023-12-22T15:22:11;7.43;;;5.87;;
37855;SDS011;23694;43.274;26.924;2023-12-22T15:24:37;5.50;;;3.63;;
37855;SDS011;23694;43.274;26.924;2023-12-22T15:27:11;7.30;;;3.83;;
37855;SDS011;23694;43.274;26.924;2023-12-22T15:29:38;6.97;;;3.23;;
37855;SDS011;23694;43.274;26.924;2023-12-22T15:32:04;5.40;;;3.17;;
37855;SDS011;23694;43.274;26.924;2023-12-22T15:34:30;4.97;;;2.77;;
37855;SDS011;23694;43.274;26.924;2023-12-22T15:36:57;3.77;;;2.50;;
37855;SDS011;23694;43.274;26.924;2023-12-22T15:39:23;6.83;;;3.53;;
37855;SDS011;23694;43.274;26.924;2023-12-22T15:41:49;5.83;;;2.93;;
37855;SDS011;23694;43.274;26.924;2023-12-22T15:44:15;6.67;;;2.13;;
37855;SDS011;23694;43.274;26.924;2023-12-22T15:46:41;10.43;;;6.83;;
37855;SDS011;23694;43.274;26.924;2023-12-22T15:49:07;12.60;;;7.50;;
37855;SDS011;23694;43.274;26.924;2023-12-22T15:51:33;3.93;;;3.30;;